Time;durP1;ratioP1;P1;durP2;ratioP2;P2;SDS_P1;SDS_P2;PMS_P1;PMS_P2;Temp;Humidity;BMP_temperature;BMP_pressure;BME280_temperature;BME280_humidity;BME280_pressure;Samples;Min_cycle;Max_cycle;Signal;HPM_P1;HPM_P2
2023/09/30 00:00:00;;;;;;;17.15;3.65;;;11.40;99.90;;;;;;4997036;28;20032;-69
2023/09/30 00:02:26;;;;;;;11.77;4.30;;;11.40;99.90;;;;;;5007414;28;20474;-69
2023/09/30 00:04:52;;;;;;;11.18;3.92;;;11.30;99.90;;;;;;5003282;28;20037;-70
2023/09/30 00:07:17;;;;;;;17.33;4.53;;;11.30;99.90;;;;;;5008243;28;20043;-69
2023/09/30 00:09:43;;;;;;;14.98;3.78;;;11.30;99.90;;;;;;5005157;28;20072;-70
2023/09/30 00:12:08;;;;;;;17.40;3.97;;;11.30;99.90;;;;;;5007344;28;20390;-69
2023/09/30 00:14:34;;;;;;;15.90;4.10;;;11.30;99.90;;;;;;5000087;28;20030;-70
2023/09/30 00:17:00;;;;;;;18.65;4.40;;;11.30;99.90;;;;;;5009551;28;20038;-71
2023/09/30 00:19:26;;;;;;;14.80;4.00;;;11.30;99.90;;;;;;5000121;28;20525;-69
2023/09/30 00:21:51;;;;;;;21.00;3.95;;;11.20;99.90;;;;;;5009999;28;20045;-69
2023/09/30 00:24:17;;;;;;;15.43;4.50;;;11.30;99.90;;;;;;5006360;28;20034;-69
2023/09/30 00:26:42;;;;;;;20.48;4.43;;;11.30;99.90;;;;;;5001726;28;20131;-69
2023/09/30 00:29:08;;;;;;;16.13;4.25;;;11.20;99.90;;;;;;5003010;28;20027;-69
2023/09/30 00:31:33;;;;;;;14.98;4.63;;;11.20;99.90;;;;;;5007989;28;20441;-69
2023/09/30 00:33:59;;;;;;;22.45;4.75;;;11.20;99.90;;;;;;5003247;28;20030;-69
2023/09/30 00:36:25;;;;;;;22.48;5.18;;;11.20;99.90;;;;;;5004723;28;20062;-69
2023/09/30 00:38:51;;;;;;;21.77;5.00;;;11.20;99.90;;;;;;5013054;28;20042;-69
2023/09/30 00:41:17;;;;;;;20.05;4.88;;;11.20;99.90;;;;;;5012087;28;20478;-69
2023/09/30 00:43:46;;;;;;;22.38;4.50;;;11.10;99.90;;;;;;5004372;28;20044;-69
2023/09/30 00:46:28;;;;;;;23.38;4.72;;;11.20;99.90;;;;;;5009438;28;20498;-69
2023/09/30 00:48:55;;;;;;;19.67;5.78;;;11.20;99.90;;;;;;5011084;28;20034;-73
2023/09/30 00:51:22;;;;;;;18.15;5.35;;;11.10;99.90;;;;;;5013171;28;20124;-69
2023/09/30 00:53:48;;;;;;;21.02;5.15;;;11.20;99.90;;;;;;5011097;28;20066;-70
2023/09/30 00:56:14;;;;;;;25.83;5.40;;;11.10;99.90;;;;;;5010177;28;20727;-72
2023/09/30 00:58:40;;;;;;;18.60;5.07;;;11.10;99.90;;;;;;4998435;28;20152;-71
2023/09/30 01:01:06;;;;;;;22.02;4.82;;;11.10;99.90;;;;;;5010403;28;21538;-70
2023/09/30 01:03:31;;;;;;;21.85;5.18;;;11.10;99.90;;;;;;5002681;28;20057;-69
2023/09/30 01:05:57;;;;;;;15.70;4.82;;;11.10;99.90;;;;;;5011561;28;20461;-69
2023/09/30 01:08:23;;;;;;;21.20;5.35;;;11.10;99.90;;;;;;5007913;28;20076;-69
2023/09/30 01:10:49;;;;;;;22.52;4.82;;;11.10;99.90;;;;;;4999899;28;20034;-69
2023/09/30 01:13:14;;;;;;;19.67;5.25;;;11.00;99.90;;;;;;5007927;28;20114;-70
2023/09/30 01:15:39;;;;;;;21.98;4.90;;;11.00;99.90;;;;;;5006195;28;20045;-69
2023/09/30 01:18:06;;;;;;;24.65;5.40;;;11.00;99.90;;;;;;5011124;28;20037;-69
2023/09/30 01:20:32;;;;;;;23.73;5.40;;;11.00;99.90;;;;;;5011268;28;20041;-69
2023/09/30 01:22:57;;;;;;;20.83;5.15;;;11.00;99.90;;;;;;5008916;28;20053;-69
2023/09/30 01:25:24;;;;;;;22.25;5.45;;;11.00;99.90;;;;;;5007688;28;20081;-69
2023/09/30 01:27:51;;;;;;;18.30;5.68;;;10.90;99.90;;;;;;5007212;28;20033;-69
2023/09/30 01:30:18;;;;;;;21.30;6.07;;;10.90;99.90;;;;;;5000993;28;20033;-70
2023/09/30 01:32:44;;;;;;;20.85;5.35;;;10.90;99.90;;;;;;5010198;28;20042;-69
2023/09/30 01:35:09;;;;;;;23.85;5.55;;;10.80;99.90;;;;;;5013083;28;20531;-69
2023/09/30 01:37:35;;;;;;;17.25;5.25;;;10.90;99.90;;;;;;5012946;28;20117;-69
2023/09/30 01:40:03;;;;;;;24.15;5.90;;;10.80;99.90;;;;;;5012498;28;20033;-72
2023/09/30 01:42:29;;;;;;;20.52;5.40;;;10.80;99.90;;;;;;5011144;28;20026;-73
2023/09/30 01:44:54;;;;;;;23.20;5.88;;;10.80;99.90;;;;;;5005997;28;20057;-69
2023/09/30 01:47:20;;;;;;;19.45;5.75;;;10.80;99.90;;;;;;5011167;28;20034;-69
2023/09/30 01:49:45;;;;;;;21.25;5.75;;;10.80;99.90;;;;;;5002991;28;20440;-69
2023/09/30 01:52:11;;;;;;;14.45;5.55;;;10.80;99.90;;;;;;5005880;28;20034;-69
2023/09/30 01:54:36;;;;;;;21.77;5.55;;;10.80;99.90;;;;;;5003914;28;20057;-69
2023/09/30 01:57:02;;;;;;;18.90;5.50;;;10.70;99.90;;;;;;5001800;28;20076;-69
2023/09/30 01:59:28;;;;;;;22.73;4.88;;;10.80;99.90;;;;;;5020792;28;20057;-69
2023/09/30 02:01:54;;;;;;;19.77;4.68;;;10.70;99.90;;;;;;5002560;28;20026;-70
2023/09/30 02:04:19;;;;;;;25.52;5.88;;;10.70;99.90;;;;;;5008604;28;20036;-73
2023/09/30 02:06:45;;;;;;;32.65;6.05;;;10.80;99.90;;;;;;5010603;28;20034;-70
2023/09/30 02:09:10;;;;;;;26.55;5.95;;;10.80;99.90;;;;;;5011691;28;20034;-71
2023/09/30 02:11:37;;;;;;;23.88;5.10;;;10.90;99.90;;;;;;5011209;28;20033;-69
2023/09/30 02:14:03;;;;;;;22.58;5.45;;;10.90;99.90;;;;;;5008982;28;20506;-69
2023/09/30 02:16:28;;;;;;;22.00;4.72;;;10.80;99.90;;;;;;5009303;28;20117;-69
2023/09/30 02:18:54;;;;;;;27.73;5.88;;;10.90;99.90;;;;;;5003443;28;20042;-71
2023/09/30 02:21:21;;;;;;;27.00;5.20;;;10.80;99.90;;;;;;5001124;28;20038;-69
2023/09/30 02:23:48;;;;;;;25.67;4.95;;;10.80;99.90;;;;;;5005592;28;20030;-71
2023/09/30 02:26:14;;;;;;;18.50;5.05;;;10.80;99.90;;;;;;5007077;28;20133;-70
2023/09/30 02:28:40;;;;;;;22.98;5.15;;;10.80;99.90;;;;;;5000456;28;20034;-71
2023/09/30 02:31:07;;;;;;;21.17;4.72;;;10.80;99.90;;;;;;5005823;28;20491;-71
2023/09/30 02:33:35;;;;;;;15.35;4.93;;;10.80;99.90;;;;;;5006702;28;20056;-69
2023/09/30 02:36:01;;;;;;;25.45;5.45;;;10.80;99.90;;;;;;5005191;28;20486;-70
2023/09/30 02:38:27;;;;;;;16.73;5.43;;;10.80;99.90;;;;;;5010875;28;20092;-70
2023/09/30 02:40:54;;;;;;;27.20;5.50;;;10.80;99.90;;;;;;5010990;28;20378;-69
2023/09/30 02:43:20;;;;;;;21.85;5.38;;;10.80;99.90;;;;;;5006749;28;20032;-71
2023/09/30 02:45:46;;;;;;;21.95;4.85;;;10.80;99.90;;;;;;5007853;28;20037;-70
2023/09/30 02:48:11;;;;;;;17.52;5.40;;;10.80;99.90;;;;;;4999951;28;20053;-69
2023/09/30 02:50:37;;;;;;;25.73;5.30;;;10.80;99.90;;;;;;5007042;28;20038;-70
2023/09/30 02:53:04;;;;;;;18.23;5.30;;;10.80;99.90;;;;;;5011016;28;20379;-69
2023/09/30 02:55:29;;;;;;;23.77;5.30;;;10.70;99.90;;;;;;5006782;28;20030;-69
2023/09/30 02:57:55;;;;;;;26.83;5.57;;;10.70;99.90;;;;;;5003703;28;20088;-70
2023/09/30 03:00:25;;;;;;;27.67;5.18;;;10.70;99.90;;;;;;5008150;28;20079;-71
2023/09/30 03:02:53;;;;;;;21.42;5.63;;;10.80;99.90;;;;;;5002278;28;20467;-69
2023/09/30 03:05:19;;;;;;;21.17;5.60;;;10.70;99.90;;;;;;5002812;28;20022;-69
2023/09/30 03:07:45;;;;;;;32.63;6.25;;;10.70;99.90;;;;;;5010574;28;20038;-69
2023/09/30 03:10:13;;;;;;;20.77;5.65;;;10.70;99.90;;;;;;5009874;28;20045;-70
2023/09/30 03:12:38;;;;;;;18.13;5.32;;;10.70;99.90;;;;;;5009690;28;20033;-69
2023/09/30 03:15:04;;;;;;;21.60;5.45;;;10.70;99.90;;;;;;5000876;28;20038;-72
2023/09/30 03:17:31;;;;;;;20.15;4.68;;;10.70;99.90;;;;;;5002637;28;20466;-69
2023/09/30 03:19:57;;;;;;;22.65;5.43;;;10.70;99.90;;;;;;5002200;28;20023;-70
2023/09/30 03:22:23;;;;;;;27.50;5.50;;;10.70;99.90;;;;;;5011178;28;20045;-69
2023/09/30 03:24:49;;;;;;;26.83;5.00;;;10.70;99.90;;;;;;5009796;28;20864;-69
2023/09/30 03:27:15;;;;;;;28.58;5.60;;;10.70;99.90;;;;;;5008825;28;20104;-71
2023/09/30 03:29:42;;;;;;;24.77;5.43;;;10.60;99.90;;;;;;5006868;28;20054;-70
2023/09/30 03:32:07;;;;;;;29.27;5.93;;;10.60;99.90;;;;;;5007703;28;20036;-69
2023/09/30 03:34:36;;;;;;;21.65;5.47;;;10.60;99.90;;;;;;5006630;28;20034;-69
2023/09/30 03:37:01;;;;;;;23.92;5.40;;;10.60;99.90;;;;;;5024788;28;20096;-70
2023/09/30 03:39:27;;;;;;;18.80;5.60;;;10.60;99.90;;;;;;5010100;28;20022;-69
2023/09/30 03:41:55;;;;;;;20.52;5.57;;;10.70;99.90;;;;;;5010840;28;20105;-69
2023/09/30 03:44:22;;;;;;;31.50;5.07;;;10.60;99.90;;;;;;5006934;28;20058;-69
2023/09/30 03:46:48;;;;;;;23.13;5.60;;;10.70;99.90;;;;;;5002997;28;20086;-69
2023/09/30 03:49:13;;;;;;;27.67;6.03;;;10.70;99.90;;;;;;5004221;28;20046;-70
2023/09/30 03:51:39;;;;;;;23.42;5.93;;;10.70;99.90;;;;;;5009964;28;20042;-70
2023/09/30 03:54:05;;;;;;;21.73;5.65;;;10.70;99.90;;;;;;5007109;28;20117;-73
2023/09/30 03:56:31;;;;;;;23.20;5.43;;;10.70;99.90;;;;;;5005942;28;20117;-69
2023/09/30 03:58:57;;;;;;;19.30;5.65;;;10.70;99.90;;;;;;4998018;28;20136;-69
2023/09/30 04:01:23;;;;;;;29.80;6.55;;;10.70;99.90;;;;;;5004459;28;20029;-69
2023/09/30 04:03:49;;;;;;;19.90;5.50;;;10.70;99.90;;;;;;5024524;28;20030;-68
2023/09/30 04:06:14;;;;;;;29.08;5.00;;;10.70;99.90;;;;;;5005291;28;20509;-69
2023/09/30 04:08:40;;;;;;;25.90;6.07;;;10.80;99.90;;;;;;5004659;28;20092;-69
2023/09/30 04:11:06;;;;;;;26.25;6.65;;;10.80;99.90;;;;;;5010113;28;20431;-69
2023/09/30 04:13:33;;;;;;;22.45;5.95;;;10.80;99.90;;;;;;5004832;28;20038;-69
2023/09/30 04:15:58;;;;;;;23.65;5.85;;;10.80;99.90;;;;;;5006814;28;20057;-69
2023/09/30 04:18:26;;;;;;;31.90;6.18;;;10.80;99.90;;;;;;5011953;28;20076;-69
2023/09/30 04:20:52;;;;;;;23.63;5.50;;;10.80;99.90;;;;;;5010612;28;20104;-71
2023/09/30 04:23:20;;;;;;;19.98;6.07;;;10.80;99.90;;;;;;5012963;28;20136;-70
2023/09/30 04:25:46;;;;;;;26.42;6.53;;;10.80;99.90;;;;;;5013918;28;20034;-71
2023/09/30 04:28:12;;;;;;;26.90;6.30;;;10.80;99.90;;;;;;5009011;28;20065;-65
2023/09/30 04:30:38;;;;;;;24.05;5.82;;;10.80;99.90;;;;;;5011107;28;20137;-67
2023/09/30 04:33:07;;;;;;;24.83;6.18;;;10.90;99.90;;;;;;5011379;28;20129;-66
2023/09/30 04:35:35;;;;;;;17.60;5.22;;;10.80;99.90;;;;;;5014365;28;20068;-65
2023/09/30 04:38:04;;;;;;;23.58;6.22;;;10.80;99.90;;;;;;5013179;28;20036;-67
2023/09/30 04:40:30;;;;;;;24.05;6.65;;;10.80;99.90;;;;;;5009141;28;20081;-65
2023/09/30 04:42:58;;;;;;;25.50;5.68;;;10.80;99.90;;;;;;5005885;28;20034;-66
2023/09/30 04:45:25;;;;;;;29.30;6.47;;;10.90;99.90;;;;;;5006247;28;20336;-67
2023/09/30 04:47:56;;;;;;;24.27;6.00;;;10.80;99.90;;;;;;5007425;28;20136;-65
2023/09/30 04:50:22;;;;;;;32.20;6.20;;;10.90;99.90;;;;;;5010665;28;20053;-65
2023/09/30 04:52:48;;;;;;;24.30;6.13;;;10.90;99.90;;;;;;5010175;28;20061;-66
2023/09/30 04:55:16;;;;;;;22.02;6.25;;;10.90;99.90;;;;;;5014397;28;20065;-67
2023/09/30 04:57:44;;;;;;;28.75;6.65;;;10.90;99.90;;;;;;5004611;28;20026;-65
2023/09/30 05:00:11;;;;;;;26.48;6.78;;;10.90;99.90;;;;;;5006111;28;20383;-66
2023/09/30 05:02:37;;;;;;;21.75;5.63;;;10.90;99.90;;;;;;5002607;28;20113;-68
2023/09/30 05:05:05;;;;;;;25.50;6.15;;;10.90;99.90;;;;;;5013677;28;20101;-65
2023/09/30 05:07:31;;;;;;;25.42;6.13;;;10.90;99.90;;;;;;5012446;28;20429;-66
2023/09/30 05:09:57;;;;;;;21.63;6.15;;;10.90;99.90;;;;;;5014747;28;20033;-65
2023/09/30 05:12:23;;;;;;;18.58;5.88;;;10.90;99.90;;;;;;5011914;28;20413;-66
2023/09/30 05:14:48;;;;;;;20.35;5.95;;;10.90;99.90;;;;;;5010770;28;20536;-69
2023/09/30 05:17:14;;;;;;;21.40;5.70;;;10.90;99.90;;;;;;5009852;28;20125;-66
2023/09/30 05:19:39;;;;;;;25.63;5.85;;;10.90;99.90;;;;;;5011737;28;20033;-67
2023/09/30 05:22:05;;;;;;;24.70;5.72;;;10.90;99.90;;;;;;5008521;28;20053;-66
2023/09/30 05:24:31;;;;;;;20.88;6.05;;;10.90;99.90;;;;;;5009984;28;20426;-66
2023/09/30 05:26:56;;;;;;;23.80;5.65;;;10.90;99.90;;;;;;5011325;28;20060;-66
2023/09/30 05:29:22;;;;;;;29.88;6.10;;;10.90;99.90;;;;;;5003855;28;20494;-68
2023/09/30 05:31:48;;;;;;;24.80;5.97;;;10.90;99.90;;;;;;5008350;28;20080;-65
2023/09/30 05:34:14;;;;;;;29.80;6.90;;;10.90;99.90;;;;;;5006098;28;20046;-66
2023/09/30 05:36:39;;;;;;;25.15;6.22;;;10.90;99.90;;;;;;5019140;28;20273;-65
2023/09/30 05:39:05;;;;;;;23.13;5.80;;;10.90;99.90;;;;;;5002766;28;20046;-66
2023/09/30 05:41:33;;;;;;;26.58;6.40;;;10.90;99.90;;;;;;5010236;28;20505;-66
2023/09/30 05:43:59;;;;;;;29.65;6.35;;;10.90;99.90;;;;;;5006622;28;20025;-66
2023/09/30 05:46:25;;;;;;;23.52;6.47;;;10.90;99.90;;;;;;5007656;28;20037;-66
2023/09/30 05:48:50;;;;;;;17.45;6.43;;;10.90;99.90;;;;;;5008279;28;20419;-66
2023/09/30 05:51:16;;;;;;;20.10;5.65;;;11.00;99.90;;;;;;5012311;28;20033;-67
2023/09/30 05:53:42;;;;;;;22.48;5.43;;;10.90;99.90;;;;;;5009045;28;20076;-65
2023/09/30 05:56:10;;;;;;;27.05;6.75;;;10.90;99.90;;;;;;5011964;28;20597;-65
2023/09/30 05:58:37;;;;;;;24.02;5.97;;;10.90;99.90;;;;;;5003031;28;20104;-66
2023/09/30 06:01:07;;;;;;;18.58;6.03;;;11.00;99.90;;;;;;5008679;28;20590;-66
2023/09/30 06:03:34;;;;;;;24.00;5.75;;;11.00;99.90;;;;;;5006726;28;20398;-66
2023/09/30 06:06:00;;;;;;;27.02;6.85;;;11.00;99.90;;;;;;5009363;28;20050;-66
2023/09/30 06:08:25;;;;;;;20.95;6.18;;;10.90;99.90;;;;;;5001383;28;20030;-69
2023/09/30 06:10:50;;;;;;;21.23;5.85;;;10.90;99.90;;;;;;5008323;28;20395;-66
2023/09/30 06:13:16;;;;;;;18.30;6.22;;;10.90;99.90;;;;;;5010924;28;20091;-66
2023/09/30 06:15:43;;;;;;;28.08;6.50;;;11.00;99.90;;;;;;5006443;28;20053;-66
2023/09/30 06:18:13;;;;;;;20.27;5.50;;;10.90;99.90;;;;;;5007127;28;20030;-66
2023/09/30 06:20:39;;;;;;;25.98;6.47;;;10.90;99.90;;;;;;5008071;28;20087;-67
2023/09/30 06:23:04;;;;;;;25.25;6.20;;;10.90;99.90;;;;;;4999161;28;20125;-66
2023/09/30 06:25:30;;;;;;;26.13;6.25;;;10.90;99.90;;;;;;5000954;28;20087;-68
2023/09/30 06:27:56;;;;;;;21.73;5.63;;;10.90;99.90;;;;;;5002329;28;20433;-66
2023/09/30 06:30:21;;;;;;;26.98;6.45;;;10.90;99.90;;;;;;5007997;28;20088;-66
2023/09/30 06:32:47;;;;;;;20.38;6.50;;;10.80;99.90;;;;;;5008792;28;20041;-66
2023/09/30 06:35:13;;;;;;;23.45;6.45;;;10.90;99.90;;;;;;5008024;28;20025;-67
2023/09/30 06:37:40;;;;;;;32.13;7.10;;;10.90;99.90;;;;;;5008288;28;20536;-66
2023/09/30 06:40:07;;;;;;;27.95;6.82;;;10.90;99.90;;;;;;5009655;28;20030;-66
2023/09/30 06:42:35;;;;;;;30.45;6.25;;;10.90;99.90;;;;;;5000339;28;20030;-67
2023/09/30 06:45:05;;;;;;;27.73;6.35;;;11.00;99.90;;;;;;5005323;28;20429;-66
2023/09/30 06:47:34;;;;;;;30.47;6.57;;;11.00;99.90;;;;;;5007606;28;20057;-67
2023/09/30 06:50:07;;;;;;;25.15;6.45;;;11.10;99.90;;;;;;5000465;28;20034;-66
2023/09/30 06:52:34;;;;;;;23.40;7.00;;;11.10;99.90;;;;;;5010667;28;20080;-66
2023/09/30 06:54:59;;;;;;;19.35;6.38;;;11.20;99.90;;;;;;5007772;28;20026;-66
2023/09/30 06:57:25;;;;;;;21.80;7.82;;;11.30;99.90;;;;;;5009809;28;20034;-67
2023/09/30 06:59:51;;;;;;;25.70;6.53;;;11.30;99.90;;;;;;5007059;28;20042;-66
2023/09/30 07:02:16;;;;;;;25.00;6.72;;;11.40;99.90;;;;;;5003428;28;20164;-66
2023/09/30 07:04:41;;;;;;;25.95;6.75;;;11.40;99.90;;;;;;5003862;28;20029;-66
2023/09/30 07:07:07;;;;;;;27.20;6.60;;;11.40;99.90;;;;;;5008502;28;20352;-66
2023/09/30 07:09:32;;;;;;;26.95;7.28;;;11.50;99.90;;;;;;5009741;28;20038;-66
2023/09/30 07:11:58;;;;;;;25.70;6.15;;;11.50;99.90;;;;;;5005787;28;20038;-65
2023/09/30 07:14:23;;;;;;;28.17;6.00;;;11.60;99.90;;;;;;5004878;28;20153;-66
2023/09/30 07:16:49;;;;;;;28.58;7.28;;;11.70;99.90;;;;;;5004560;28;20092;-66
2023/09/30 07:19:14;;;;;;;26.38;7.00;;;11.80;99.90;;;;;;5002436;28;20538;-66
2023/09/30 07:21:40;;;;;;;20.58;6.70;;;11.80;99.90;;;;;;5005142;28;20042;-67
2023/09/30 07:24:05;;;;;;;26.42;6.90;;;11.90;99.90;;;;;;5007857;28;20116;-67
2023/09/30 07:26:31;;;;;;;23.70;6.93;;;12.10;99.90;;;;;;5005930;28;20054;-66
2023/09/30 07:28:58;;;;;;;21.77;6.15;;;12.10;99.90;;;;;;5006668;28;20069;-65
2023/09/30 07:31:23;;;;;;;34.30;7.03;;;12.20;99.80;;;;;;5001701;28;20042;-66
2023/09/30 07:33:49;;;;;;;22.73;6.47;;;12.30;99.80;;;;;;5008700;28;20489;-66
2023/09/30 07:36:14;;;;;;;21.17;6.05;;;12.40;99.80;;;;;;4999122;28;20044;-66
2023/09/30 07:38:40;;;;;;;25.55;6.60;;;12.50;99.80;;;;;;5006925;28;20426;-66
2023/09/30 07:41:06;;;;;;;25.25;6.68;;;12.50;99.50;;;;;;5010773;28;20417;-69
2023/09/30 07:43:31;;;;;;;27.60;6.53;;;12.60;99.20;;;;;;5004453;28;20025;-66
2023/09/30 07:45:56;;;;;;;23.95;6.88;;;12.70;99.00;;;;;;4999812;28;20042;-66
2023/09/30 07:48:22;;;;;;;27.10;7.03;;;12.70;98.70;;;;;;5004062;28;20030;-67
2023/09/30 07:50:47;;;;;;;26.85;6.53;;;12.80;98.60;;;;;;5004560;28;20116;-66
2023/09/30 07:53:13;;;;;;;23.50;6.22;;;12.90;98.70;;;;;;5006821;28;20041;-66
2023/09/30 07:55:39;;;;;;;21.13;7.22;;;12.90;98.20;;;;;;5005955;28;20430;-66
2023/09/30 07:58:05;;;;;;;25.85;6.40;;;13.00;98.20;;;;;;5003373;28;21669;-66
2023/09/30 08:00:33;;;;;;;26.00;6.47;;;13.00;98.00;;;;;;4997914;28;20117;-67
2023/09/30 08:03:00;;;;;;;26.00;6.70;;;13.10;97.50;;;;;;4999439;28;20048;-66
2023/09/30 08:05:26;;;;;;;20.88;6.05;;;13.30;97.70;;;;;;4997804;28;20040;-66
2023/09/30 08:07:51;;;;;;;24.63;5.60;;;13.30;97.60;;;;;;5005056;28;20037;-67
2023/09/30 08:10:17;;;;;;;22.35;6.53;;;13.40;97.50;;;;;;4994823;28;20053;-66
2023/09/30 08:12:46;;;;;;;15.55;5.15;;;13.50;97.60;;;;;;5002891;28;20042;-69
2023/09/30 08:15:14;;;;;;;21.75;5.40;;;13.60;97.30;;;;;;4999918;28;20030;-66
2023/09/30 08:17:40;;;;;;;18.73;5.22;;;13.60;96.60;;;;;;5003980;28;20097;-66
2023/09/30 08:20:07;;;;;;;21.85;5.25;;;13.80;96.70;;;;;;4996839;28;20415;-68
2023/09/30 08:22:32;;;;;;;20.58;5.28;;;13.80;96.20;;;;;;5003699;28;20038;-65
2023/09/30 08:24:58;;;;;;;19.30;5.68;;;13.80;95.90;;;;;;5008048;28;20109;-66
2023/09/30 08:27:24;;;;;;;22.95;5.57;;;14.00;96.10;;;;;;5009162;28;20356;-66
2023/09/30 08:29:50;;;;;;;23.98;5.30;;;14.10;95.70;;;;;;5005812;28;20092;-66
2023/09/30 08:32:15;;;;;;;24.20;5.00;;;14.10;95.20;;;;;;5001652;28;20181;-66
2023/09/30 08:34:40;;;;;;;18.00;5.03;;;14.20;95.70;;;;;;4998925;28;20029;-66
2023/09/30 08:37:06;;;;;;;19.65;4.22;;;14.20;95.30;;;;;;4995963;28;20034;-66
2023/09/30 08:39:31;;;;;;;14.05;4.22;;;14.40;95.00;;;;;;4994856;28;20402;-68
2023/09/30 08:41:57;;;;;;;16.23;4.55;;;14.50;94.90;;;;;;5005767;28;22330;-66
2023/09/30 08:44:23;;;;;;;14.38;4.25;;;14.50;94.80;;;;;;4997254;28;20029;-66
2023/09/30 08:46:50;;;;;;;15.90;4.07;;;14.60;94.40;;;;;;4996777;28;20370;-66
2023/09/30 08:49:15;;;;;;;15.15;3.80;;;14.80;94.90;;;;;;5001586;28;20030;-68
2023/09/30 08:51:42;;;;;;;12.00;3.88;;;14.80;93.90;;;;;;5005110;28;20479;-66
2023/09/30 08:54:08;;;;;;;19.85;3.80;;;14.90;93.40;;;;;;5003032;28;20084;-67
2023/09/30 08:56:34;;;;;;;10.07;3.92;;;15.00;93.90;;;;;;4997942;28;20031;-66
2023/09/30 08:59:00;;;;;;;10.18;3.45;;;15.10;93.20;;;;;;5003134;28;20386;-66
2023/09/30 09:01:27;;;;;;;9.82;2.78;;;15.20;92.40;;;;;;5004421;28;20068;-66
2023/09/30 09:03:53;;;;;;;10.70;2.63;;;15.20;91.70;;;;;;5001225;28;20382;-69
2023/09/30 09:06:23;;;;;;;14.02;3.40;;;15.30;91.70;;;;;;5005626;28;20026;-66
2023/09/30 09:08:49;;;;;;;9.27;2.75;;;15.30;91.70;;;;;;5010759;28;20042;-66
2023/09/30 09:11:15;;;;;;;8.95;2.60;;;15.40;91.80;;;;;;5011838;28;20116;-66
2023/09/30 09:13:55;;;;;;;8.98;2.33;;;15.50;91.00;;;;;;4998626;28;20554;-68
2023/09/30 09:16:21;;;;;;;11.85;3.05;;;15.60;90.80;;;;;;5002564;28;20084;-68
2023/09/30 09:18:47;;;;;;;11.52;2.70;;;15.70;90.80;;;;;;5008324;28;20088;-66
2023/09/30 09:21:17;;;;;;;10.38;2.53;;;15.90;91.30;;;;;;4999236;28;20038;-68
2023/09/30 09:23:47;;;;;;;7.38;2.35;;;15.90;90.00;;;;;;5000067;28;20120;-65
2023/09/30 09:26:28;;;;;;;10.50;2.72;;;16.00;89.90;;;;;;5021628;28;20042;-67
2023/09/30 09:29:00;;;;;;;10.27;2.08;;;16.00;88.90;;;;;;5008573;28;20561;-68
2023/09/30 09:31:28;;;;;;;8.95;2.17;;;16.00;88.80;;;;;;5009802;28;20136;-66
2023/09/30 09:33:53;;;;;;;10.23;1.88;;;16.00;88.40;;;;;;5009915;28;20029;-65
2023/09/30 09:36:19;;;;;;;9.05;1.90;;;16.10;87.80;;;;;;5011184;28;20034;-66
2023/09/30 09:38:48;;;;;;;8.02;2.13;;;16.30;87.50;;;;;;5000408;28;20030;-66
2023/09/30 09:41:14;;;;;;;7.80;2.00;;;16.30;88.00;;;;;;5013790;28;20072;-67
2023/09/30 09:43:43;;;;;;;8.23;1.90;;;16.40;88.10;;;;;;5009903;28;20034;-66
2023/09/30 09:46:10;;;;;;;8.60;1.50;;;16.50;87.20;;;;;;5008914;28;20044;-68
2023/09/30 09:48:36;;;;;;;8.48;1.92;;;16.50;86.90;;;;;;5012515;28;20030;-66
2023/09/30 09:51:07;;;;;;;6.93;2.00;;;16.60;86.80;;;;;;5013027;28;20037;-66
2023/09/30 09:53:36;;;;;;;11.53;1.93;;;16.70;86.60;;;;;;5003967;28;20046;-66
2023/09/30 09:56:03;;;;;;;8.98;1.90;;;16.90;87.60;;;;;;5009202;28;20025;-66
2023/09/30 09:58:33;;;;;;;9.35;2.08;;;16.90;85.90;;;;;;5007946;28;20112;-66
2023/09/30 10:01:01;;;;;;;6.88;1.60;;;16.80;85.00;;;;;;5005500;28;20160;-66
2023/09/30 10:03:26;;;;;;;8.98;1.88;;;17.00;84.60;;;;;;5009696;28;20038;-66
2023/09/30 10:05:52;;;;;;;9.63;2.10;;;16.80;84.20;;;;;;5013134;28;20036;-65
2023/09/30 10:08:21;;;;;;;6.20;1.77;;;16.90;84.20;;;;;;5004967;28;20042;-65
2023/09/30 10:10:47;;;;;;;8.48;1.73;;;17.10;84.20;;;;;;5004140;28;20026;-66
2023/09/30 10:14:00;;;;;;;9.35;1.83;;;17.20;84.00;;;;;;5008020;28;20033;-66
2023/09/30 10:16:35;;;;;;;11.60;1.85;;;17.30;83.80;;;;;;5000904;28;20203;-66
2023/09/30 10:19:12;;;;;;;10.00;1.80;;;17.30;83.00;;;;;;5005413;28;20030;-66
2023/09/30 10:21:38;;;;;;;8.18;1.40;;;17.50;83.40;;;;;;5006034;28;20030;-65
2023/09/30 10:24:27;;;;;;;8.05;1.45;;;17.60;84.20;;;;;;4997825;28;20049;-66
2023/09/30 10:27:33;;;;;;;7.20;1.50;;;17.80;81.60;;;;;;5010011;28;20053;-66
2023/09/30 10:30:01;;;;;;;11.23;1.73;;;17.70;80.60;;;;;;5006459;28;20459;-65
2023/09/30 10:32:56;;;;;;;6.72;1.42;;;17.80;80.70;;;;;;5001771;28;20060;-66
2023/09/30 10:35:45;;;;;;;5.10;1.48;;;17.80;81.10;;;;;;5003360;28;20018;-65
2023/09/30 10:38:22;;;;;;;9.73;1.40;;;18.00;80.10;;;;;;5011675;28;20042;-66
2023/09/30 10:40:50;;;;;;;10.98;1.77;;;18.10;80.20;;;;;;4995874;28;20550;-66
2023/09/30 10:43:32;;;;;;;8.32;1.60;;;18.10;80.40;;;;;;4994021;28;20026;-66
2023/09/30 10:45:58;;;;;;;7.28;2.00;;;18.00;79.20;;;;;;5002785;28;20101;-65
2023/09/30 10:48:31;;;;;;;8.52;1.88;;;18.10;80.50;;;;;;4993338;28;20030;-68
2023/09/30 10:51:20;;;;;;;10.35;1.80;;;18.00;79.50;;;;;;5003951;28;20471;-66
2023/09/30 10:53:56;;;;;;;4.70;1.15;;;18.00;79.20;;;;;;5010518;28;20125;-67
2023/09/30 10:56:23;;;;;;;5.82;1.35;;;18.30;78.80;;;;;;5003571;28;20037;-67
2023/09/30 10:58:52;;;;;;;6.78;1.70;;;18.50;78.80;;;;;;5004803;28;20032;-66
2023/09/30 11:01:23;;;;;;;6.93;1.48;;;18.50;78.30;;;;;;5005198;28;20048;-66
2023/09/30 11:03:52;;;;;;;9.23;1.30;;;18.40;78.80;;;;;;5000579;28;20072;-66
2023/09/30 11:06:21;;;;;;;4.43;1.20;;;18.30;76.30;;;;;;5000638;28;20046;-67
2023/09/30 11:08:52;;;;;;;6.90;1.35;;;18.30;77.20;;;;;;5008608;28;20069;-66
2023/09/30 11:11:18;;;;;;;8.35;1.55;;;18.50;76.10;;;;;;5006861;28;20116;-66
2023/09/30 11:13:43;;;;;;;8.93;1.38;;;18.70;75.30;;;;;;5003359;28;20459;-66
2023/09/30 11:16:09;;;;;;;9.48;1.67;;;18.70;75.10;;;;;;5000166;28;20027;-69
2023/09/30 11:18:35;;;;;;;7.68;1.77;;;18.60;75.20;;;;;;5002672;28;20458;-68
2023/09/30 11:21:04;;;;;;;7.95;1.20;;;19.00;76.70;;;;;;4999875;28;20347;-69
2023/09/30 11:23:31;;;;;;;5.65;1.23;;;19.10;74.90;;;;;;5002710;28;20040;-66
2023/09/30 11:25:56;;;;;;;4.30;0.88;;;19.10;74.10;;;;;;5000768;28;20129;-66
2023/09/30 11:28:25;;;;;;;5.72;1.20;;;19.40;74.50;;;;;;5002715;28;20034;-66
2023/09/30 11:30:55;;;;;;;3.67;1.02;;;19.50;72.80;;;;;;5002289;28;20044;-66
2023/09/30 11:33:22;;;;;;;5.72;1.13;;;19.30;70.10;;;;;;5005558;28;20117;-66
2023/09/30 11:36:02;;;;;;;8.77;1.52;;;19.10;70.30;;;;;;5001629;28;20026;-67
2023/09/30 11:38:28;;;;;;;7.03;1.08;;;19.30;70.20;;;;;;5005443;28;20088;-67
2023/09/30 11:41:06;;;;;;;6.25;1.25;;;19.50;69.50;;;;;;5006060;28;20038;-67
2023/09/30 11:43:33;;;;;;;6.47;1.00;;;19.20;70.40;;;;;;4997054;28;20030;-66
2023/09/30 11:46:10;;;;;;;3.70;1.02;;;19.50;69.70;;;;;;5007380;28;20030;-66
2023/09/30 11:48:57;;;;;;;4.03;1.17;;;19.50;69.00;;;;;;5005845;28;20053;-67
2023/09/30 11:51:24;;;;;;;6.22;1.25;;;19.20;70.50;;;;;;5006019;28;20418;-65
2023/09/30 11:53:57;;;;;;;6.05;1.10;;;19.30;69.50;;;;;;5001744;28;20025;-66
2023/09/30 11:56:28;;;;;;;6.25;1.10;;;19.60;68.60;;;;;;5005914;28;20029;-67
2023/09/30 11:58:55;;;;;;;4.78;1.10;;;19.70;68.90;;;;;;4998266;28;20044;-67
2023/09/30 12:01:21;;;;;;;5.18;1.08;;;19.80;66.10;;;;;;5003596;28;20057;-67
2023/09/30 12:03:48;;;;;;;7.22;1.30;;;19.70;65.70;;;;;;5004726;28;20033;-66
2023/09/30 12:06:16;;;;;;;4.57;1.05;;;19.60;66.50;;;;;;4999944;28;20458;-67
2023/09/30 12:08:41;;;;;;;5.50;1.20;;;19.90;67.90;;;;;;5009058;28;20545;-66
2023/09/30 12:11:07;;;;;;;5.10;0.90;;;19.70;67.90;;;;;;5006099;28;20030;-67
2023/09/30 12:13:33;;;;;;;5.55;1.15;;;19.90;66.10;;;;;;5001957;28;20048;-67
2023/09/30 12:15:58;;;;;;;3.47;0.80;;;20.00;65.00;;;;;;5002924;28;20038;-69
2023/09/30 12:18:24;;;;;;;4.95;1.30;;;20.00;64.50;;;;;;4999689;28;20121;-67
2023/09/30 12:20:52;;;;;;;2.60;0.77;;;19.50;65.60;;;;;;4999563;28;20099;-66
2023/09/30 12:23:18;;;;;;;6.18;1.17;;;19.80;64.80;;;;;;5001490;28;20089;-65
2023/09/30 12:25:43;;;;;;;4.18;0.90;;;19.90;65.00;;;;;;5005944;28;20487;-66
2023/09/30 12:28:09;;;;;;;4.65;0.90;;;20.00;63.80;;;;;;4993254;28;20114;-66
2023/09/30 12:30:34;;;;;;;4.25;0.95;;;19.80;64.00;;;;;;4997705;28;20643;-68
2023/09/30 12:33:00;;;;;;;4.88;0.95;;;20.10;63.80;;;;;;5005500;28;20068;-66
2023/09/30 12:35:26;;;;;;;6.07;1.13;;;20.40;63.50;;;;;;5005461;28;20022;-66
2023/09/30 12:37:52;;;;;;;5.65;1.10;;;20.00;63.40;;;;;;5005799;28;20033;-66